createdAt,value
2022-10-13T00:01:43.142Z,14.70
2022-10-13T00:05:08.114Z,14.90
2022-10-13T00:08:33.604Z,14.70
2022-10-13T00:11:59.221Z,14.70
2022-10-13T00:15:25.908Z,14.70
2022-10-13T00:18:50.733Z,14.70
2022-10-13T00:22:14.326Z,14.60
2022-10-13T00:25:44.140Z,14.70
2022-10-13T00:29:07.596Z,14.70
2022-10-13T00:32:31.296Z,14.80
2022-10-13T00:35:55.038Z,14.90
2022-10-13T00:39:18.500Z,14.90
2022-10-13T00:42:43.935Z,14.90
2022-10-13T00:46:07.484Z,15.00
2022-10-13T00:49:30.931Z,15.10
2022-10-13T00:52:57.645Z,15.20
2022-10-13T00:56:24.897Z,15.20
2022-10-13T00:59:50.909Z,15.20
2022-10-13T01:03:14.396Z,15.20
2022-10-13T01:06:38.485Z,15.20
2022-10-13T01:10:06.077Z,15.20
2022-10-13T01:13:43.019Z,15.20
2022-10-13T01:17:23.371Z,15.10
2022-10-13T01:21:18.320Z,15.10
2022-10-13T01:24:50.855Z,15.00
2022-10-13T01:28:44.642Z,14.90
2022-10-13T01:32:23.541Z,14.80
2022-10-13T01:36:12.860Z,14.80
2022-10-13T01:39:43.871Z,14.80
2022-10-13T01:43:12.889Z,14.70
2022-10-13T01:46:39.873Z,16.00
2022-10-13T01:50:07.315Z,14.70
2022-10-13T01:53:34.170Z,14.60
2022-10-13T01:56:58.297Z,14.60
2022-10-13T02:00:23.880Z,14.60
2022-10-13T02:04:02.345Z,14.60
2022-10-13T02:07:34.746Z,14.60
2022-10-13T02:11:08.967Z,14.50
2022-10-13T02:14:37.230Z,14.50
2022-10-13T02:18:03.295Z,14.50
2022-10-13T02:21:27.364Z,14.60
2022-10-13T02:24:53.540Z,14.60
2022-10-13T02:28:18.275Z,14.60
2022-10-13T02:31:43.797Z,14.60
2022-10-13T02:35:08.209Z,14.70
2022-10-13T02:38:31.879Z,14.70
2022-10-13T02:41:56.601Z,14.80
2022-10-13T02:45:20.050Z,14.80
2022-10-13T02:48:45.153Z,14.90
2022-10-13T02:52:09.361Z,14.90
2022-10-13T02:55:38.543Z,15.00
2022-10-13T02:59:03.331Z,15.00
2022-10-13T03:02:28.273Z,15.00
2022-10-13T03:05:51.702Z,15.10
2022-10-13T03:09:17.860Z,15.10
2022-10-13T03:12:41.300Z,15.10
2022-10-13T03:16:07.173Z,15.10
2022-10-13T03:19:31.172Z,15.10
2022-10-13T03:22:54.604Z,15.20
2022-10-13T03:26:18.073Z,15.10
2022-10-13T03:29:41.529Z,15.20
2022-10-13T03:33:07.471Z,15.20
2022-10-13T03:36:30.904Z,15.20
2022-10-13T03:39:54.341Z,15.20
2022-10-13T03:43:17.863Z,15.20
2022-10-13T03:46:41.535Z,16.60
2022-10-13T03:50:08.439Z,15.20
2022-10-13T03:53:32.096Z,15.20
2022-10-13T03:56:55.522Z,15.20
2022-10-13T04:00:19.296Z,15.10
2022-10-13T04:03:42.722Z,15.10
2022-10-13T04:07:09.283Z,15.10
2022-10-13T04:10:32.899Z,15.10
2022-10-13T04:13:58.130Z,15.10
2022-10-13T04:17:21.530Z,15.10
2022-10-13T04:20:45.087Z,15.10
2022-10-13T04:24:13.375Z,15.10
2022-10-13T04:27:38.389Z,15.20
2022-10-13T04:31:01.859Z,15.20
2022-10-13T04:34:25.296Z,15.20
2022-10-13T04:37:48.770Z,15.30
2022-10-13T04:41:15.874Z,15.20
2022-10-13T04:44:39.573Z,15.30
2022-10-13T04:48:04.915Z,15.20
2022-10-13T04:51:28.346Z,15.20
2022-10-13T04:54:51.735Z,15.20
2022-10-13T04:58:16.478Z,15.20
2022-10-13T05:01:39.951Z,15.20
2022-10-13T05:05:06.083Z,15.20
2022-10-13T05:08:29.633Z,15.20
2022-10-13T05:11:54.782Z,15.20
2022-10-13T05:15:19.793Z,15.20
2022-10-13T05:18:43.963Z,15.20
2022-10-13T05:22:07.492Z,15.20
2022-10-13T05:25:33.829Z,15.10
2022-10-13T05:28:57.899Z,15.10
2022-10-13T05:32:23.503Z,15.00
2022-10-13T05:35:47.026Z,15.00
2022-10-13T05:39:11.570Z,15.00
2022-10-13T05:42:37.027Z,15.00
2022-10-13T05:46:00.716Z,15.00
2022-10-13T05:49:30.349Z,15.00
2022-10-13T05:52:53.940Z,15.10
2022-10-13T05:56:22.469Z,15.10
2022-10-13T05:59:52.191Z,15.10
2022-10-13T06:03:20.263Z,15.10
2022-10-13T06:06:45.304Z,15.20
2022-10-13T06:10:10.055Z,15.20
2022-10-13T06:13:33.760Z,15.10
2022-10-13T06:16:57.677Z,15.10
2022-10-13T06:20:21.563Z,15.10
2022-10-13T06:23:46.306Z,15.10
2022-10-13T06:27:09.846Z,15.20
2022-10-13T06:30:33.244Z,15.20
2022-10-13T06:33:57.073Z,15.20
2022-10-13T06:37:26.213Z,15.30
2022-10-13T06:40:52.120Z,15.40
2022-10-13T06:44:17.781Z,15.50
2022-10-13T06:47:42.278Z,15.50
2022-10-13T06:51:08.721Z,15.60
2022-10-13T06:54:32.212Z,15.60
2022-10-13T06:57:57.045Z,15.70
2022-10-13T07:01:20.660Z,15.70
2022-10-13T07:04:44.493Z,15.70
2022-10-13T07:08:07.933Z,15.80
2022-10-13T07:11:31.404Z,15.80
2022-10-13T07:14:57.293Z,15.80
2022-10-13T07:18:20.724Z,15.90
2022-10-13T07:21:44.148Z,16.10
2022-10-13T07:25:09.743Z,15.90
2022-10-13T07:28:33.435Z,15.90
2022-10-13T07:31:58.285Z,16.00
2022-10-13T07:35:24.777Z,16.00
2022-10-13T07:38:51.695Z,16.20
2022-10-13T07:42:15.213Z,16.20
2022-10-13T07:45:38.757Z,16.30
2022-10-13T07:49:03.573Z,16.40
2022-10-13T07:52:27.073Z,16.50
2022-10-13T07:55:51.159Z,16.70
2022-10-13T07:59:15.006Z,17.00
2022-10-13T08:02:42.476Z,17.00
2022-10-13T08:06:08.527Z,17.20
2022-10-13T08:09:32.118Z,17.40
2022-10-13T08:12:58.262Z,17.60
2022-10-13T08:16:22.588Z,17.70
2022-10-13T08:19:46.270Z,17.90
2022-10-13T08:23:11.110Z,18.10
2022-10-13T08:26:38.605Z,18.40
2022-10-13T08:30:02.223Z,18.40
2022-10-13T08:33:26.393Z,18.50
2022-10-13T08:36:52.793Z,18.60
2022-10-13T08:40:22.971Z,18.70
2022-10-13T08:44:33.670Z,18.80
2022-10-13T08:47:45.984Z,19.00
2022-10-13T08:51:13.381Z,19.40
2022-10-13T08:54:39.267Z,19.80
2022-10-13T08:58:13.900Z,20.20
2022-10-13T09:01:38.344Z,20.50
2022-10-13T09:05:06.071Z,20.70
2022-10-13T09:08:44.837Z,20.90
2022-10-13T09:12:11.294Z,21.10
2022-10-13T09:15:46.980Z,21.10
2022-10-13T09:19:24.571Z,21.20
2022-10-13T09:23:05.012Z,21.30
2022-10-13T09:26:28.462Z,21.30
2022-10-13T09:29:51.911Z,21.40
2022-10-13T09:33:37.672Z,21.30
2022-10-13T09:37:04.076Z,21.20
2022-10-13T09:40:30.911Z,21.20
2022-10-13T09:44:11.464Z,21.20
2022-10-13T09:47:35.284Z,21.00
2022-10-13T09:51:01.032Z,20.90
2022-10-13T09:54:38.469Z,20.80
2022-10-13T09:58:10.703Z,20.80
2022-10-13T10:01:44.350Z,20.70
2022-10-13T10:05:23.550Z,20.60
2022-10-13T10:09:03.223Z,20.60
2022-10-13T10:12:34.721Z,20.60
2022-10-13T10:16:06.814Z,20.70
2022-10-13T10:19:48.489Z,20.70
2022-10-13T10:23:22.576Z,20.80
2022-10-13T10:26:56.617Z,20.80
2022-10-13T10:30:21.997Z,20.80
2022-10-13T10:34:00.215Z,20.90
2022-10-13T10:37:46.441Z,20.80
2022-10-13T10:41:32.674Z,20.80
2022-10-13T10:44:58.878Z,20.70
2022-10-13T10:48:26.958Z,20.60
2022-10-13T10:51:51.102Z,20.50
2022-10-13T10:55:23.649Z,20.50
2022-10-13T10:59:00.133Z,20.50
2022-10-13T11:02:49.788Z,20.40
2022-10-13T11:06:36.988Z,20.40
2022-10-13T11:10:20.887Z,20.40
2022-10-13T11:13:55.064Z,20.40
2022-10-13T11:17:28.260Z,20.40
2022-10-13T11:21:00.110Z,20.40
2022-10-13T11:25:03.920Z,20.40
2022-10-13T11:28:48.209Z,20.40
2022-10-13T11:33:04.747Z,20.50
2022-10-13T11:36:56.197Z,20.50
2022-10-13T11:40:26.317Z,20.50
2022-10-13T11:44:02.091Z,20.60
2022-10-13T11:48:18.824Z,20.60
2022-10-13T11:52:08.729Z,20.60
2022-10-13T11:55:47.390Z,20.70
2022-10-13T11:59:26.096Z,20.70
2022-10-13T12:02:52.021Z,20.70
2022-10-13T12:06:34.248Z,20.80
2022-10-13T12:09:59.413Z,20.90
2022-10-13T12:13:26.922Z,21.00
2022-10-13T12:20:26.743Z,21.10
2022-10-13T12:23:52.407Z,21.20
2022-10-13T12:27:22.897Z,21.30
2022-10-13T12:30:54.154Z,21.40
2022-10-13T12:34:25.857Z,21.40
2022-10-13T12:37:50.300Z,21.50
2022-10-13T12:41:17.985Z,21.60
2022-10-13T12:44:43.685Z,21.60
2022-10-13T12:48:07.832Z,21.80
2022-10-13T12:51:31.606Z,21.70
2022-10-13T12:54:57.757Z,21.70
2022-10-13T12:58:26.261Z,21.80
2022-10-13T13:02:02.466Z,21.80
2022-10-13T13:05:40.414Z,21.80
2022-10-13T13:09:33.156Z,21.90
2022-10-13T13:13:03.337Z,21.90
2022-10-13T13:16:26.801Z,22.00
2022-10-13T13:19:54.291Z,22.00
2022-10-13T13:23:19.641Z,22.00
2022-10-13T13:26:46.984Z,21.90
2022-10-13T13:30:14.098Z,21.90
2022-10-13T13:33:38.778Z,21.90
2022-10-13T13:37:04.256Z,21.90
2022-10-13T13:40:29.436Z,21.80
2022-10-13T13:43:52.855Z,21.80
2022-10-13T13:47:22.625Z,21.80
2022-10-13T13:50:46.201Z,21.80
2022-10-13T13:54:11.027Z,21.60
2022-10-13T13:57:34.509Z,21.50
2022-10-13T14:00:59.678Z,21.50
2022-10-13T14:04:23.139Z,21.40
2022-10-13T14:07:46.712Z,21.40
2022-10-13T14:11:11.693Z,21.30
2022-10-13T14:14:35.438Z,21.20
2022-10-13T14:17:59.223Z,21.20
2022-10-13T14:21:22.616Z,21.10
2022-10-13T14:24:46.040Z,21.10
2022-10-13T14:28:14.503Z,21.00
2022-10-13T14:31:41.056Z,21.00
2022-10-13T14:35:05.961Z,21.00
2022-10-13T14:38:29.838Z,20.90
2022-10-13T14:41:53.242Z,20.90
2022-10-13T14:45:18.073Z,20.90
2022-10-13T14:48:41.442Z,20.80
2022-10-13T14:52:05.150Z,20.80
2022-10-13T14:55:28.520Z,20.80
2022-10-13T14:58:57.438Z,20.80
2022-10-13T15:02:26.911Z,20.70
2022-10-13T15:05:51.078Z,20.70
2022-10-13T15:09:14.538Z,20.70
2022-10-13T15:12:38.012Z,20.60
2022-10-13T15:16:02.396Z,20.50
2022-10-13T15:19:27.446Z,20.40
2022-10-13T15:22:50.931Z,20.30
2022-10-13T15:26:17.598Z,20.30
2022-10-13T15:29:41.241Z,20.20
2022-10-13T15:33:06.936Z,20.40
2022-10-13T15:36:31.716Z,20.30
2022-10-13T15:39:57.537Z,20.20
2022-10-13T15:43:21.373Z,20.20
2022-10-13T15:47:05.762Z,20.20
2022-10-13T15:50:29.437Z,20.20
2022-10-13T15:53:55.118Z,20.10
2022-10-13T15:57:18.714Z,20.00
2022-10-13T16:00:43.093Z,19.90
2022-10-13T16:04:06.722Z,19.80
2022-10-13T16:07:30.153Z,19.70
2022-10-13T16:10:54.917Z,19.70
2022-10-13T16:14:18.432Z,19.70
2022-10-13T16:17:41.824Z,19.60
2022-10-13T16:21:14.411Z,19.60
2022-10-13T16:24:41.167Z,19.50
2022-10-13T16:28:06.077Z,19.50
2022-10-13T16:31:29.732Z,19.50
2022-10-13T16:34:53.380Z,19.40
2022-10-13T16:38:16.942Z,19.40
2022-10-13T16:41:40.867Z,19.30
2022-10-13T16:45:08.580Z,19.20
2022-10-13T16:48:33.571Z,19.20
2022-10-13T16:51:57.060Z,19.10
2022-10-13T16:55:20.677Z,19.00
2022-10-13T16:58:45.241Z,19.00
2022-10-13T17:02:15.101Z,18.90
2022-10-13T17:05:39.411Z,18.80
2022-10-13T17:09:03.318Z,18.70
2022-10-13T17:12:26.878Z,18.70
2022-10-13T17:15:53.122Z,18.60
2022-10-13T17:19:17.936Z,18.60
2022-10-13T17:22:41.929Z,18.50
2022-10-13T17:26:09.089Z,18.50
2022-10-13T17:29:32.718Z,18.50
2022-10-13T17:32:58.647Z,18.40
2022-10-13T17:36:29.601Z,18.40
2022-10-13T17:39:53.368Z,18.40
2022-10-13T17:43:18.040Z,18.30
2022-10-13T17:46:41.506Z,18.30
2022-10-13T17:50:05.734Z,18.30
2022-10-13T17:53:30.540Z,18.20
2022-10-13T17:56:56.839Z,18.20
2022-10-13T18:00:20.744Z,18.20
2022-10-13T18:03:50.336Z,18.20
2022-10-13T18:07:14.946Z,18.10
2022-10-13T18:11:03.588Z,18.10
2022-10-13T18:14:26.191Z,18.10
2022-10-13T18:17:50.194Z,18.10
2022-10-13T18:21:16.785Z,18.10
2022-10-13T18:24:42.873Z,18.00
2022-10-13T18:28:07.964Z,18.00
2022-10-13T18:31:36.763Z,18.00
2022-10-13T18:35:00.203Z,17.90
2022-10-13T18:38:24.908Z,18.00
2022-10-13T18:41:49.843Z,18.00
2022-10-13T18:45:14.752Z,18.00
2022-10-13T18:48:38.828Z,18.00
2022-10-13T18:52:03.326Z,18.00
2022-10-13T18:55:26.915Z,17.90
2022-10-13T18:58:56.968Z,17.90
2022-10-13T19:02:24.013Z,17.90
2022-10-13T19:05:47.443Z,17.80
2022-10-13T19:09:14.586Z,17.80
2022-10-13T19:12:38.309Z,17.80
2022-10-13T19:16:02.804Z,17.80
2022-10-13T19:19:27.780Z,17.80
2022-10-13T19:22:51.220Z,17.80
2022-10-13T19:26:17.612Z,17.80
2022-10-13T19:29:41.148Z,17.80
2022-10-13T19:33:06.271Z,17.70
2022-10-13T19:36:35.103Z,17.80
2022-10-13T19:39:59.971Z,17.80
2022-10-13T19:43:25.731Z,17.70
2022-10-13T19:46:50.919Z,17.70
2022-10-13T19:50:14.556Z,17.70
2022-10-13T19:53:40.705Z,17.70
2022-10-13T19:57:04.351Z,17.70
2022-10-13T20:00:27.954Z,17.70
2022-10-13T20:03:52.682Z,17.60
2022-10-13T20:07:16.530Z,17.60
2022-10-13T20:10:44.036Z,17.60
2022-10-13T20:14:07.762Z,17.60
2022-10-13T20:17:31.298Z,17.50
2022-10-13T20:20:54.765Z,17.50
2022-10-13T20:24:18.986Z,17.60
2022-10-13T20:27:43.769Z,17.50
2022-10-13T20:31:08.595Z,17.50
2022-10-13T20:34:32.415Z,17.50
2022-10-13T20:37:56.025Z,17.40
2022-10-13T20:41:22.595Z,17.30
2022-10-13T20:44:47.381Z,17.30
2022-10-13T20:48:10.785Z,17.20
2022-10-13T20:51:34.228Z,17.20
2022-10-13T20:54:57.750Z,17.20
2022-10-13T20:58:21.923Z,17.10
2022-10-13T21:01:46.778Z,17.10
2022-10-13T21:05:10.361Z,17.00
2022-10-13T21:08:35.013Z,17.00
2022-10-13T21:11:58.498Z,17.00
2022-10-13T21:15:22.433Z,16.90
2022-10-13T21:18:49.897Z,17.10
2022-10-13T21:22:13.422Z,16.90
2022-10-13T21:25:38.211Z,16.90
2022-10-13T21:29:02.630Z,16.90
2022-10-13T21:32:26.840Z,16.90
2022-10-13T21:35:51.758Z,16.90
2022-10-13T21:39:18.664Z,17.00
2022-10-13T21:42:42.155Z,16.90
2022-10-13T21:46:13.700Z,17.00
2022-10-13T21:49:38.961Z,16.90
2022-10-13T21:53:03.886Z,17.00
2022-10-13T21:56:29.240Z,17.00
2022-10-13T21:59:52.654Z,17.00
2022-10-13T22:03:16.147Z,17.00
2022-10-13T22:06:39.725Z,17.00
2022-10-13T22:10:05.573Z,17.00
2022-10-13T22:13:29.019Z,16.90
2022-10-13T22:16:54.215Z,16.90
2022-10-13T22:20:17.903Z,16.90
2022-10-13T22:23:41.934Z,16.80
2022-10-13T22:27:06.758Z,16.80
2022-10-13T22:30:30.294Z,16.80
2022-10-13T22:33:54.488Z,16.80
2022-10-13T22:37:18.201Z,16.80
2022-10-13T22:40:41.831Z,16.80
2022-10-13T22:44:06.733Z,16.80
2022-10-13T22:47:30.420Z,16.80
2022-10-13T22:50:54.041Z,16.80
2022-10-13T22:54:17.460Z,16.90
2022-10-13T22:57:41.049Z,16.90
2022-10-13T23:01:12.531Z,16.90
2022-10-13T23:04:35.963Z,17.00
2022-10-13T23:07:59.394Z,17.00
2022-10-13T23:11:23.757Z,17.00
2022-10-13T23:14:47.190Z,17.00
2022-10-13T23:18:12.188Z,17.00
2022-10-13T23:21:35.705Z,17.00
2022-10-13T23:24:59.144Z,17.00
2022-10-13T23:28:22.601Z,17.00
2022-10-13T23:31:46.132Z,17.10
2022-10-13T23:35:11.531Z,17.00
2022-10-13T23:38:35.805Z,17.10
2022-10-13T23:41:59.611Z,17.00
2022-10-13T23:45:23.097Z,17.10
2022-10-13T23:48:47.055Z,17.10
2022-10-13T23:52:11.835Z,17.10
2022-10-13T23:55:39.586Z,17.10
2022-10-13T23:59:03.020Z,17.10
